Time;durP1;ratioP1;P1;durP2;ratioP2;P2;SDS_P1;SDS_P2;PMS_P1;PMS_P2;Temp;Humidity;BMP_temperature;BMP_pressure;BME280_temperature;BME280_humidity;BME280_pressure;Samples;Min_cycle;Max_cycle;Signal;HPM_P1;HPM_P2
2023/07/18 00:07:00;;;;;;;;;;;;;;;15.86;98.40;102124.41;21031290;28;20011;-61
2023/07/18 00:17:22;;;;;;;;;;;;;;;15.83;99.97;102127.13;21044769;28;19924;-61
2023/07/18 00:27:43;;;;;;;;;;;;;;;15.76;98.19;102128.22;21031571;28;19936;-61
2023/07/18 00:38:05;;;;;;;;;;;;;;;15.74;99.55;102111.75;21028555;28;19931;-61
2023/07/18 00:48:32;;;;;;;;;;;;;;;15.68;97.65;102106.69;21036476;28;20307;-61
2023/07/18 00:58:54;;;;;;;;;;;;;;;15.61;98.59;102110.41;21029436;28;19928;-61
2023/07/18 01:09:15;;;;;;;;;;;;;;;15.47;97.90;102105.59;21016055;28;19967;-61
2023/07/18 01:19:37;;;;;;;;;;;;;;;15.48;97.05;102098.63;21033513;28;19924;-61
2023/07/18 01:29:58;;;;;;;;;;;;;;;15.43;98.75;102095.28;21033778;28;20312;-61
2023/07/18 01:40:20;;;;;;;;;;;;;;;15.39;98.30;102088.41;21025221;28;19928;-61
2023/07/18 01:50:42;;;;;;;;;;;;;;;15.35;97.78;102086.78;21021900;28;19925;-61
2023/07/18 02:01:03;;;;;;;;;;;;;;;15.27;97.19;102079.22;21024302;28;20276;-61
2023/07/18 02:11:25;;;;;;;;;;;;;;;15.26;99.50;102080.09;21028799;28;19975;-61
2023/07/18 02:21:46;;;;;;;;;;;;;;;15.14;97.07;102070.03;21004044;28;20498;-61
2023/07/18 02:32:08;;;;;;;;;;;;;;;15.12;96.26;102058.81;21015060;28;19924;-61
2023/07/18 02:42:31;;;;;;;;;;;;;;;15.06;98.21;102064.19;21022181;28;20380;-61
2023/07/18 02:52:57;;;;;;;;;;;;;;;14.97;97.95;102078.34;21016847;28;20007;-61
2023/07/18 03:03:18;;;;;;;;;;;;;;;14.90;97.01;102069.00;21002765;28;19970;-61
2023/07/18 03:13:41;;;;;;;;;;;;;;;14.88;98.52;102077.72;21050521;28;20706;-61
2023/07/18 03:24:10;;;;;;;;;;;;;;;14.85;98.66;102080.44;21021975;28;19924;-61
2023/07/18 03:34:31;;;;;;;;;;;;;;;14.86;99.31;102083.00;21029352;28;19923;-61
2023/07/18 03:44:53;;;;;;;;;;;;;;;14.88;98.12;102083.81;21042491;28;20380;-61
2023/07/18 03:55:14;;;;;;;;;;;;;;;14.84;97.35;102086.53;21029204;28;19939;-61
2023/07/18 04:05:36;;;;;;;;;;;;;;;14.86;98.31;102084.75;21035803;28;20012;-61
2023/07/18 04:15:57;;;;;;;;;;;;;;;14.87;96.93;102094.28;21083799;27;19924;-60
2023/07/18 04:26:19;;;;;;;;;;;;;;;14.91;98.35;102078.50;21104250;27;20019;-61
2023/07/18 04:36:41;;;;;;;;;;;;;;;14.90;96.59;102082.03;21099036;27;19928;-61
2023/07/18 04:47:03;;;;;;;;;;;;;;;14.97;96.00;102077.47;21103215;27;19923;-60
2023/07/18 04:57:25;;;;;;;;;;;;;;;15.08;95.58;102081.50;21101503;27;19932;-60
2023/07/18 05:07:47;;;;;;;;;;;;;;;15.03;95.23;102085.97;21097911;27;19928;-61
2023/07/18 05:18:09;;;;;;;;;;;;;;;15.05;95.29;102080.75;21112768;27;20310;-61
2023/07/18 05:28:30;;;;;;;;;;;;;;;15.21;95.47;102088.97;21105684;27;19932;-60
2023/07/18 05:38:52;;;;;;;;;;;;;;;15.29;95.70;102100.03;21088731;27;19928;-60
2023/07/18 05:49:14;;;;;;;;;;;;;;;15.40;94.37;102104.03;21083562;27;19934;-61
2023/07/18 05:59:35;;;;;;;;;;;;;;;15.54;95.35;102096.69;21082029;27;19928;-61
2023/07/18 06:09:57;;;;;;;;;;;;;;;15.63;95.93;102095.56;21089852;27;19924;-61
2023/07/18 06:20:20;;;;;;;;;;;;;;;15.79;93.98;102107.22;21098175;27;19931;-61
2023/07/18 06:30:41;;;;;;;;;;;;;;;16.04;92.80;102101.19;21079230;27;19924;-60
2023/07/18 06:41:03;;;;;;;;;;;;;;;16.34;91.57;102101.94;21091037;27;19927;-60
2023/07/18 06:51:24;;;;;;;;;;;;;;;16.69;93.82;102092.94;21085580;28;19938;-60
2023/07/18 07:01:46;;;;;;;;;;;;;;;16.91;89.72;102088.66;21076946;28;19931;-60
2023/07/18 07:12:07;;;;;;;;;;;;;;;17.13;89.89;102083.47;21094429;28;19959;-60
2023/07/18 07:22:32;;;;;;;;;;;;;;;17.37;90.61;102087.81;21091418;28;19924;-61
2023/07/18 07:32:54;;;;;;;;;;;;;;;17.94;88.56;102082.97;21093445;28;20474;-60
2023/07/18 07:43:15;;;;;;;;;;;;;;;17.93;89.37;102095.19;21102756;28;19927;-61
2023/07/18 07:53:37;;;;;;;;;;;;;;;18.23;89.93;102081.75;21094847;27;19966;-60
2023/07/18 08:03:58;;;;;;;;;;;;;;;18.37;87.92;102080.25;21106270;27;20074;-61
2023/07/18 08:14:20;;;;;;;;;;;;;;;18.62;86.83;102061.75;21102279;27;19931;-61
2023/07/18 08:24:41;;;;;;;;;;;;;;;18.87;84.08;102055.38;21108208;27;20425;-61
2023/07/18 08:35:03;;;;;;;;;;;;;;;19.18;82.14;102053.97;21108260;27;19932;-60
2023/07/18 08:45:27;;;;;;;;;;;;;;;19.34;81.34;102049.75;21089547;27;20261;-61
2023/07/18 08:55:49;;;;;;;;;;;;;;;19.61;79.75;102045.81;21093729;27;19984;-60
2023/07/18 09:06:18;;;;;;;;;;;;;;;19.70;79.82;102027.00;21099774;27;19924;-61
2023/07/18 09:16:41;;;;;;;;;;;;;;;19.99;79.77;102018.53;21095958;27;20576;-62
2023/07/18 09:27:04;;;;;;;;;;;;;;;20.39;76.35;102006.84;21079419;27;19928;-62
2023/07/18 09:37:26;;;;;;;;;;;;;;;20.70;76.08;102004.31;21081482;27;19932;-62
2023/07/18 09:47:48;;;;;;;;;;;;;;;20.89;73.14;102003.25;21097388;27;19930;-62
2023/07/18 09:58:12;;;;;;;;;;;;;;;21.20;73.55;101991.94;21096774;27;20371;-61
2023/07/18 10:08:34;;;;;;;;;;;;;;;21.15;72.98;101990.50;21076893;27;19927;-62
2023/07/18 10:18:56;;;;;;;;;;;;;;;21.08;73.96;101975.97;21090339;27;20919;-62
2023/07/18 10:29:18;;;;;;;;;;;;;;;21.25;74.44;101962.69;21094027;27;19978;-62
2023/07/18 10:39:43;;;;;;;;;;;;;;;21.06;75.40;101962.88;21086789;27;21484;-61
2023/07/18 10:50:06;;;;;;;;;;;;;;;20.83;74.57;101961.50;21088251;28;19925;-62
2023/07/18 11:00:29;;;;;;;;;;;;;;;20.74;75.49;101951.47;21094203;28;19930;-62
2023/07/18 11:10:58;;;;;;;;;;;;;;;20.78;76.40;101937.22;21084450;28;19924;-61
2023/07/18 11:21:20;;;;;;;;;;;;;;;20.77;75.43;101937.25;21075134;28;20017;-62
2023/07/18 11:31:42;;;;;;;;;;;;;;;20.76;76.54;101923.28;21103534;27;19942;-62
2023/07/18 11:42:05;;;;;;;;;;;;;;;20.88;76.44;101911.22;21113413;27;19932;-62
2023/07/18 11:52:27;;;;;;;;;;;;;;;20.98;74.36;101897.47;21102707;27;20348;-62
2023/07/18 12:02:48;;;;;;;;;;;;;;;21.63;74.55;101895.47;21114339;27;19923;-62
2023/07/18 12:13:10;;;;;;;;;;;;;;;22.22;72.44;101876.97;21104306;27;20399;-62
2023/07/18 12:23:32;;;;;;;;;;;;;;;22.64;73.07;101850.56;21104127;27;19927;-62
2023/07/18 12:33:53;;;;;;;;;;;;;;;22.39;70.43;101850.38;21101483;27;19967;-62
2023/07/18 12:44:19;;;;;;;;;;;;;;;22.19;70.06;101856.06;21091035;27;19935;-62
2023/07/18 12:54:43;;;;;;;;;;;;;;;22.07;67.73;101838.34;21080230;27;20408;-62
2023/07/18 13:05:05;;;;;;;;;;;;;;;22.26;73.69;101815.16;21104377;27;20643;-62
2023/07/18 13:15:27;;;;;;;;;;;;;;;22.52;70.17;101803.81;21090858;27;19938;-62
2023/07/18 13:25:48;;;;;;;;;;;;;;;22.46;69.83;101798.94;21095407;27;20383;-62
2023/07/18 13:36:09;;;;;;;;;;;;;;;22.32;72.89;101801.59;21098026;27;20308;-61
2023/07/18 13:46:31;;;;;;;;;;;;;;;22.18;70.48;101809.50;21092568;27;20264;-62
2023/07/18 13:56:53;;;;;;;;;;;;;;;22.03;72.95;101805.19;21096467;27;19935;-61
2023/07/18 14:07:14;;;;;;;;;;;;;;;21.81;72.84;101812.75;21097703;27;20451;-61
2023/07/18 14:17:36;;;;;;;;;;;;;;;21.77;72.80;101798.84;21093172;27;19997;-61
2023/07/18 14:27:58;;;;;;;;;;;;;;;21.65;74.16;101793.47;21080612;27;19935;-61
2023/07/18 14:38:19;;;;;;;;;;;;;;;21.50;75.48;101789.16;21076816;27;20018;-61
2023/07/18 14:48:41;;;;;;;;;;;;;;;21.45;75.85;101791.19;21074688;27;19924;-61
2023/07/18 14:59:03;;;;;;;;;;;;;;;21.50;76.21;101783.88;21092624;27;19928;-61
2023/07/18 15:09:24;;;;;;;;;;;;;;;21.47;75.17;101778.78;21094501;27;20026;-61
2023/07/18 15:19:49;;;;;;;;;;;;;;;21.34;75.17;101767.28;21110709;27;19928;-61
2023/07/18 15:30:11;;;;;;;;;;;;;;;21.18;75.12;101767.34;21113449;27;20376;-61
2023/07/18 15:40:33;;;;;;;;;;;;;;;21.18;74.75;101761.22;21098598;27;19931;-61
2023/07/18 15:50:54;;;;;;;;;;;;;;;21.18;74.16;101741.03;21093622;27;19924;-61
2023/07/18 16:01:16;;;;;;;;;;;;;;;21.33;73.38;101741.91;21111015;27;19924;-61
2023/07/18 16:11:37;;;;;;;;;;;;;;;21.28;73.44;101730.81;21093855;27;20049;-61
2023/07/18 16:21:59;;;;;;;;;;;;;;;21.32;74.19;101716.47;21104595;27;19927;-61
2023/07/18 16:32:20;;;;;;;;;;;;;;;21.15;74.70;101724.56;21098766;27;20404;-61
2023/07/18 16:42:42;;;;;;;;;;;;;;;21.02;74.94;101720.97;21095362;27;19934;-61
2023/07/18 16:53:03;;;;;;;;;;;;;;;20.90;75.41;101725.97;21104679;27;19924;-61
2023/07/18 17:03:25;;;;;;;;;;;;;;;20.86;76.11;101719.19;21095702;27;19928;-61
2023/07/18 17:13:46;;;;;;;;;;;;;;;20.79;76.68;101712.59;21102824;27;19945;-61
2023/07/18 17:24:11;;;;;;;;;;;;;;;20.75;76.75;101695.28;21102319;27;20024;-61
2023/07/18 17:34:35;;;;;;;;;;;;;;;20.69;77.70;101693.00;21100748;27;20498;-61
2023/07/18 17:44:56;;;;;;;;;;;;;;;20.58;76.98;101687.53;21109288;27;19924;-61
2023/07/18 17:55:18;;;;;;;;;;;;;;;20.55;76.84;101677.19;21094726;27;19924;-61
2023/07/18 18:05:46;;;;;;;;;;;;;;;20.37;76.88;101677.38;21093604;27;19949;-61
2023/07/18 18:16:08;;;;;;;;;;;;;;;20.26;77.80;101679.78;21105184;27;19928;-61
2023/07/18 18:26:30;;;;;;;;;;;;;;;20.24;77.32;101661.47;21078368;27;19924;-61
2023/07/18 18:36:51;;;;;;;;;;;;;;;20.17;77.56;101660.13;21102841;27;19931;-62
2023/07/18 18:47:13;;;;;;;;;;;;;;;20.00;77.81;101650.50;21091134;27;19927;-61
2023/07/18 18:57:35;;;;;;;;;;;;;;;19.90;77.72;101651.13;21089457;28;19924;-61
2023/07/18 19:07:57;;;;;;;;;;;;;;;19.88;78.15;101663.50;21099690;28;19934;-61
2023/07/18 19:18:18;;;;;;;;;;;;;;;19.82;77.86;101661.19;21088852;28;19935;-61
2023/07/18 19:28:40;;;;;;;;;;;;;;;19.74;77.67;101656.34;21100273;28;19931;-61
2023/07/18 19:39:01;;;;;;;;;;;;;;;19.67;77.30;101646.25;21095183;28;19927;-61
2023/07/18 19:49:26;;;;;;;;;;;;;;;19.66;78.10;101648.06;21083626;27;19931;-61
2023/07/18 19:59:47;;;;;;;;;;;;;;;19.67;77.67;101647.13;21114529;27;19975;-61
2023/07/18 20:10:09;;;;;;;;;;;;;;;19.62;77.88;101633.41;21091357;27;20022;-62
2023/07/18 20:20:31;;;;;;;;;;;;;;;19.56;78.27;101632.88;21109973;27;20042;-61
2023/07/18 20:30:53;;;;;;;;;;;;;;;19.54;78.35;101626.88;21102441;27;19924;-62
2023/07/18 20:41:14;;;;;;;;;;;;;;;19.53;78.72;101615.50;21096216;27;19924;-61
2023/07/18 20:51:38;;;;;;;;;;;;;;;19.47;79.93;101601.84;21105999;27;19992;-61
2023/07/18 21:02:00;;;;;;;;;;;;;;;19.35;81.21;101607.78;21093327;27;19995;-61
2023/07/18 21:12:22;;;;;;;;;;;;;;;19.23;81.25;101600.53;21101571;27;19970;-61
2023/07/18 21:22:43;;;;;;;;;;;;;;;19.21;80.62;101610.28;21099013;27;19924;-61
2023/07/18 21:33:04;;;;;;;;;;;;;;;19.15;81.70;101598.31;21091935;27;20360;-62
2023/07/18 21:43:26;;;;;;;;;;;;;;;19.12;80.95;101595.84;21095351;27;19943;-61
2023/07/18 21:53:47;;;;;;;;;;;;;;;19.16;80.87;101614.91;21098214;27;19928;-62
2023/07/18 22:04:09;;;;;;;;;;;;;;;19.12;80.59;101602.88;21089681;27;20114;-61
2023/07/18 22:14:31;;;;;;;;;;;;;;;19.03;81.65;101581.44;21097851;27;19931;-62
2023/07/18 22:24:52;;;;;;;;;;;;;;;18.99;81.97;101569.41;21092922;27;20281;-62
2023/07/18 22:35:14;;;;;;;;;;;;;;;18.96;81.70;101547.75;21093642;27;19928;-61
2023/07/18 22:45:35;;;;;;;;;;;;;;;18.93;80.90;101566.28;21095957;27;19932;-61
2023/07/18 22:55:57;;;;;;;;;;;;;;;18.87;80.81;101567.44;21088371;28;19928;-62
2023/07/18 23:06:18;;;;;;;;;;;;;;;18.78;81.07;101557.44;21094532;28;19935;-61
2023/07/18 23:16:40;;;;;;;;;;;;;;;18.77;81.42;101552.28;21108744;28;19931;-61
2023/07/18 23:27:01;;;;;;;;;;;;;;;18.75;81.18;101554.94;21105033;27;19923;-62
2023/07/18 23:37:23;;;;;;;;;;;;;;;18.75;82.53;101544.47;21088404;27;19924;-62
2023/07/18 23:47:45;;;;;;;;;;;;;;;18.64;82.36;101528.44;21095568;27;19940;-61
2023/07/18 23:58:06;;;;;;;;;;;;;;;18.59;83.37;101517.34;21109318;27;19973;-61
